Time;durP1;ratioP1;P1;durP2;ratioP2;P2;SDS_P1;SDS_P2;PMS_P1;PMS_P2;Temp;Humidity;BMP_temperature;BMP_pressure;BME280_temperature;BME280_humidity;BME280_pressure;Samples;Min_cycle;Max_cycle;Signal;HPM_P1;HPM_P2
2023/05/02 00:00:32;;;;;;;3.70;3.35;;;;;;;13.99;56.75;97349.03;4870257;28;20476;-77
2023/05/02 00:02:57;;;;;;;4.25;3.05;;;;;;;13.83;56.33;97337.00;4854057;28;20426;-77
2023/05/02 00:05:23;;;;;;;4.25;3.58;;;;;;;13.72;56.63;97340.66;4856735;28;20607;-77
2023/05/02 00:07:50;;;;;;;4.80;3.65;;;;;;;13.62;56.49;97337.00;4884150;28;20401;-77
2023/05/02 00:10:16;;;;;;;4.30;3.80;;;;;;;13.49;56.24;97332.25;4888298;28;20415;-77
2023/05/02 00:12:41;;;;;;;4.00;3.58;;;;;;;13.42;56.68;97342.97;4873638;28;20536;-77
2023/05/02 00:15:07;;;;;;;4.35;3.83;;;;;;;13.33;56.67;97339.25;4887945;28;20234;-77
2023/05/02 00:17:33;;;;;;;4.18;3.63;;;;;;;13.26;57.11;97344.72;4886753;28;20305;-77
2023/05/02 00:19:58;;;;;;;4.60;3.95;;;;;;;13.15;57.70;97337.88;4872672;28;20555;-77
2023/05/02 00:22:24;;;;;;;3.67;3.38;;;;;;;13.11;57.60;97337.59;4884481;28;20343;-77
2023/05/02 00:24:50;;;;;;;4.72;3.92;;;;;;;13.10;57.69;97343.88;4885494;28;20319;-77
2023/05/02 00:27:16;;;;;;;3.92;3.53;;;;;;;13.02;57.64;97340.97;4872801;28;20035;-77
2023/05/02 00:29:41;;;;;;;4.10;3.65;;;;;;;13.02;57.79;97335.72;4844672;28;20191;-77
2023/05/02 00:32:07;;;;;;;4.20;3.80;;;;;;;12.93;57.75;97344.06;4887526;28;20429;-77
2023/05/02 00:34:32;;;;;;;3.70;3.25;;;;;;;12.92;58.04;97339.88;4869300;28;20111;-77
2023/05/02 00:36:58;;;;;;;4.32;3.88;;;;;;;12.83;57.82;97330.16;4866172;28;20594;-77
2023/05/02 00:39:24;;;;;;;3.58;3.20;;;;;;;12.81;58.02;97340.88;4870845;28;20199;-77
2023/05/02 00:41:56;;;;;;;3.97;3.35;;;;;;;12.87;58.43;97342.47;4882493;28;20434;-76
2023/05/02 00:44:22;;;;;;;4.72;3.50;;;;;;;12.69;58.41;97324.63;4868240;28;20439;-77
2023/05/02 00:46:47;;;;;;;4.53;3.78;;;;;;;12.73;58.57;97336.13;4869415;28;20177;-76
2023/05/02 00:49:13;;;;;;;3.97;3.58;;;;;;;12.71;58.75;97332.97;4867988;28;20113;-77
2023/05/02 00:51:39;;;;;;;4.05;3.72;;;;;;;12.73;58.80;97338.75;4890240;28;20407;-78
2023/05/02 00:54:04;;;;;;;3.95;3.50;;;;;;;12.68;59.09;97352.56;4871913;28;20595;-77
2023/05/02 00:56:30;;;;;;;4.45;3.60;;;;;;;12.67;58.99;97353.59;4886804;28;20384;-77
2023/05/02 00:58:56;;;;;;;3.72;3.42;;;;;;;12.62;58.67;97345.75;4890214;28;20440;-77
2023/05/02 01:01:28;;;;;;;4.22;3.72;;;;;;;12.70;58.70;97353.09;4884034;28;20034;-77
2023/05/02 01:04:03;;;;;;;4.38;3.92;;;;;;;12.52;58.83;97346.47;4908874;23;20479;-83
2023/05/02 01:06:41;;;;;;;4.57;4.18;;;;;;;12.68;58.82;97347.34;4906167;28;20257;-83
2023/05/02 01:09:28;;;;;;;4.35;3.95;;;;;;;12.66;58.96;97346.81;4909125;28;20765;-83
2023/05/02 01:12:03;;;;;;;5.03;4.57;;;;;;;12.55;59.00;97353.78;4892207;28;20191;-84
2023/05/02 01:14:32;;;;;;;4.70;4.20;;;;;;;12.48;59.00;97361.06;4886527;28;20254;-83
2023/05/02 01:17:03;;;;;;;4.70;4.13;;;;;;;12.38;58.89;97355.78;4906146;28;20178;-83
2023/05/02 01:19:32;;;;;;;4.93;4.22;;;;;;;12.32;59.23;97346.34;4877565;28;20647;-84
2023/05/02 01:21:58;;;;;;;5.03;4.53;;;;;;;12.28;59.61;97360.94;4901863;28;20224;-83
2023/05/02 01:24:31;;;;;;;5.00;4.50;;;;;;;12.30;59.66;97357.06;4913713;28;20378;-83
2023/05/02 01:27:12;;;;;;;4.82;4.18;;;;;;;12.33;59.69;97369.59;4913969;28;20253;-83
2023/05/02 01:29:37;;;;;;;5.03;4.07;;;;;;;12.12;60.00;97368.66;4912590;28;20184;-83
2023/05/02 01:32:05;;;;;;;4.13;3.72;;;;;;;12.25;59.28;97369.25;4892446;28;20588;-84
2023/05/02 01:34:32;;;;;;;5.88;4.22;;;;;;;12.13;59.35;97348.53;4891842;28;20175;-84
2023/05/02 01:36:58;;;;;;;4.32;3.65;;;;;;;12.08;58.59;97359.75;4889259;28;20199;-83
2023/05/02 01:39:25;;;;;;;4.82;3.42;;;;;;;12.10;58.81;97372.56;4904767;28;20280;-83
2023/05/02 01:41:52;;;;;;;5.40;4.40;;;;;;;11.97;58.86;97373.75;4893671;28;20660;-83
2023/05/02 01:44:20;;;;;;;5.90;3.78;;;;;;;11.79;59.22;97362.59;4878056;28;20193;-84
2023/05/02 01:46:47;;;;;;;4.43;3.83;;;;;;;11.57;59.47;97362.66;4898948;28;20557;-84
2023/05/02 01:49:12;;;;;;;4.50;3.80;;;;;;;11.58;59.79;97368.66;4911794;28;20086;-83
2023/05/02 01:51:45;;;;;;;3.85;3.45;;;;;;;11.60;60.13;97374.41;4910676;28;20192;-83
2023/05/02 01:54:12;;;;;;;3.30;2.95;;;;;;;11.53;60.44;97379.84;4909243;28;20102;-83
2023/05/02 01:56:38;;;;;;;4.65;4.22;;;;;;;11.44;60.62;97379.44;4907980;28;20305;-83
2023/05/02 01:59:09;;;;;;;4.60;4.18;;;;;;;11.59;60.90;97391.09;4895134;28;20269;-83
2023/05/02 02:01:39;;;;;;;4.75;4.15;;;;;;;11.54;60.43;97383.22;4895716;28;20200;-83
2023/05/02 02:04:06;;;;;;;5.03;4.07;;;;;;;11.42;60.63;97388.56;4877791;28;20266;-83
2023/05/02 02:06:32;;;;;;;4.18;3.78;;;;;;;11.46;60.72;97402.69;4894851;28;20293;-84
2023/05/02 02:08:57;;;;;;;4.57;3.80;;;;;;;11.39;60.99;97389.81;4878413;28;20139;-83
2023/05/02 02:11:34;;;;;;;4.43;3.78;;;;;;;11.62;60.19;97409.66;4894650;28;20515;-83
2023/05/02 02:14:04;;;;;;;4.15;3.67;;;;;;;11.60;60.09;97400.47;4882762;28;20198;-83
2023/05/02 02:16:32;;;;;;;4.00;3.60;;;;;;;11.60;60.14;97410.91;4880041;28;20605;-83
2023/05/02 02:19:04;;;;;;;4.75;4.28;;;;;;;11.50;60.41;97413.41;4880135;28;20217;-83
2023/05/02 02:21:31;;;;;;;4.03;3.30;;;;;;;11.28;60.67;97400.41;4855052;28;20269;-83
2023/05/02 02:23:58;;;;;;;3.97;3.30;;;;;;;11.17;60.93;97399.47;4894360;28;20579;-83
2023/05/02 02:26:24;;;;;;;4.15;3.70;;;;;;;11.18;60.65;97411.50;4882543;28;20282;-83
2023/05/02 02:28:50;;;;;;;3.63;3.30;;;;;;;11.05;60.64;97392.59;4873609;28;20304;-83
2023/05/02 02:31:15;;;;;;;4.63;4.07;;;;;;;11.12;61.18;97421.06;4878194;28;20218;-84
2023/05/02 02:33:40;;;;;;;6.35;5.72;;;;;;;11.11;61.49;97426.53;4883047;28;20258;-83
2023/05/02 02:36:12;;;;;;;4.25;3.85;;;;;;;11.09;61.64;97418.13;4894614;28;20540;-83
2023/05/02 02:38:50;;;;;;;5.05;4.35;;;;;;;11.18;61.56;97429.72;4906689;28;20202;-84
2023/05/02 02:41:26;;;;;;;4.35;3.72;;;;;;;11.21;61.61;97431.88;4885753;28;20176;-83
2023/05/02 02:44:03;;;;;;;5.75;4.40;;;;;;;11.14;61.39;97429.44;4878180;28;20635;-83
2023/05/02 02:46:55;;;;;;;5.00;4.20;;;;;;;11.12;61.30;97443.72;4891130;28;20285;-82
2023/05/02 02:49:44;;;;;;;5.65;4.40;;;;;;;11.11;61.06;97437.72;4891564;28;20345;-82
2023/05/02 02:52:37;;;;;;;6.60;5.22;;;;;;;11.16;61.14;97443.00;4875558;28;20214;-82
2023/05/02 02:55:33;;;;;;;5.40;4.68;;;;;;;11.20;60.82;97431.06;4895713;28;20175;-82
2023/05/02 02:58:05;;;;;;;5.47;4.55;;;;;;;11.22;60.70;97444.66;4881731;28;20541;-82
2023/05/02 03:00:31;;;;;;;4.88;3.95;;;;;;;11.14;60.92;97449.47;4899056;28;20651;-82
2023/05/02 03:02:57;;;;;;;6.90;4.30;;;;;;;11.04;61.14;97444.94;4878113;29;20199;-82
2023/05/02 03:05:22;;;;;;;4.25;3.85;;;;;;;10.93;61.20;97436.16;4891874;28;20288;-82
2023/05/02 03:07:48;;;;;;;5.15;4.07;;;;;;;10.97;60.99;97452.13;4877669;28;20703;-82
2023/05/02 03:10:13;;;;;;;6.07;4.85;;;;;;;10.97;61.26;97460.72;4887755;28;20238;-82
2023/05/02 03:12:39;;;;;;;6.50;5.25;;;;;;;10.83;61.86;97457.66;4895464;28;20663;-82
2023/05/02 03:15:24;;;;;;;7.43;6.03;;;;;;;10.97;61.75;97463.34;4875589;28;20191;-82
2023/05/02 03:17:49;;;;;;;7.63;6.20;;;;;;;10.82;61.87;97461.28;4887508;28;20207;-82
2023/05/02 03:20:15;;;;;;;8.77;7.18;;;;;;;10.76;62.08;97458.84;4878244;29;20239;-82
2023/05/02 03:22:40;;;;;;;9.68;6.63;;;;;;;10.77;62.32;97466.44;4869202;28;20200;-82
2023/05/02 03:25:07;;;;;;;8.55;6.80;;;;;;;10.76;61.63;97456.25;4881560;28;20256;-82
2023/05/02 03:27:33;;;;;;;8.35;6.53;;;;;;;10.78;61.71;97462.00;4882766;28;20273;-82
2023/05/02 03:29:59;;;;;;;8.50;7.05;;;;;;;10.81;62.31;97470.16;4892342;28;20213;-82
2023/05/02 03:32:25;;;;;;;7.18;5.65;;;;;;;10.71;62.10;97470.00;4866485;28;20081;-82
2023/05/02 03:34:51;;;;;;;6.45;5.80;;;;;;;10.67;62.59;97474.88;4876404;28;20217;-82
2023/05/02 03:37:16;;;;;;;7.88;6.25;;;;;;;10.57;62.69;97479.91;4888652;28;20195;-82
2023/05/02 03:39:43;;;;;;;7.45;6.22;;;;;;;10.60;62.52;97479.44;4882826;28;20412;-81
2023/05/02 03:42:08;;;;;;;8.55;6.82;;;;;;;10.52;63.74;97485.06;4877512;28;20199;-82
2023/05/02 03:44:33;;;;;;;7.50;6.38;;;;;;;10.55;63.15;97489.78;4896547;28;20701;-82
2023/05/02 03:46:59;;;;;;;8.13;6.78;;;;;;;10.59;62.48;97487.50;4883254;28;20839;-82
2023/05/02 03:49:24;;;;;;;8.63;6.82;;;;;;;10.62;63.29;97498.22;4904320;28;20189;-82
2023/05/02 03:51:50;;;;;;;10.55;8.18;;;;;;;10.55;62.94;97487.19;4886611;28;20187;-82
2023/05/02 03:54:16;;;;;;;8.55;7.10;;;;;;;10.64;62.88;97495.38;4869580;28;20277;-82
2023/05/02 03:56:42;;;;;;;10.23;7.28;;;;;;;10.65;63.18;97505.56;4900032;28;20641;-82
2023/05/02 03:59:08;;;;;;;9.60;8.30;;;;;;;10.68;63.23;97505.09;4891072;28;20096;-82
2023/05/02 04:01:34;;;;;;;11.73;8.15;;;;;;;10.62;63.92;97503.44;4901144;28;20275;-82
2023/05/02 04:03:59;;;;;;;9.85;6.93;;;;;;;10.76;62.54;97509.16;4889657;28;20735;-82
2023/05/02 04:06:24;;;;;;;8.18;6.50;;;;;;;10.70;62.75;97506.69;4901513;28;20271;-82
2023/05/02 04:08:50;;;;;;;7.45;6.28;;;;;;;10.60;63.05;97502.88;4887102;28;20205;-82
2023/05/02 04:11:15;;;;;;;8.55;6.50;;;;;;;10.59;63.12;97508.31;4884446;28;20260;-82
2023/05/02 04:13:40;;;;;;;7.97;6.40;;;;;;;10.66;62.79;97509.75;4894146;28;20256;-81
2023/05/02 04:16:06;;;;;;;12.52;9.48;;;;;;;10.76;63.17;97516.97;4908169;28;20163;-82
2023/05/02 04:18:31;;;;;;;13.00;8.05;;;;;;;10.80;62.89;97512.06;4862631;28;20235;-82
2023/05/02 04:20:57;;;;;;;8.82;7.03;;;;;;;10.66;62.43;97498.56;4910332;28;20207;-83
2023/05/02 04:23:22;;;;;;;6.35;5.30;;;;;;;10.70;61.83;97515.28;4885401;28;20202;-82
2023/05/02 04:25:55;;;;;;;5.78;4.93;;;;;;;10.61;61.89;97522.69;4890704;28;20199;-82
2023/05/02 04:28:21;;;;;;;4.70;3.80;;;;;;;10.61;61.55;97522.69;4902286;28;20343;-82
2023/05/02 04:30:47;;;;;;;4.50;3.95;;;;;;;10.38;61.77;97522.81;4871361;28;20655;-82
2023/05/02 04:33:13;;;;;;;5.38;4.40;;;;;;;10.22;61.95;97512.13;4899795;28;20286;-82
2023/05/02 04:35:39;;;;;;;6.93;6.10;;;;;;;10.09;62.29;97525.41;4903208;28;20192;-82
2023/05/02 04:38:05;;;;;;;10.45;7.30;;;;;;;10.13;63.68;97535.13;4862349;28;20197;-82
2023/05/02 04:40:31;;;;;;;11.43;8.18;;;;;;;10.13;64.22;97536.94;4904138;28;20271;-82
2023/05/02 04:42:56;;;;;;;12.23;8.70;;;;;;;10.19;64.27;97536.00;4884791;28;20756;-82
2023/05/02 04:45:21;;;;;;;14.35;9.75;;;;;;;10.29;64.61;97536.19;4888452;28;20285;-82
2023/05/02 04:47:47;;;;;;;16.17;11.02;;;;;;;10.39;65.21;97540.03;4893455;28;20211;-82
2023/05/02 04:50:12;;;;;;;18.42;12.82;;;;;;;10.52;65.22;97538.94;4907241;28;20234;-82
2023/05/02 04:52:37;;;;;;;17.02;11.88;;;;;;;10.65;64.02;97549.84;4891047;28;20192;-82
2023/05/02 04:55:03;;;;;;;14.27;10.10;;;;;;;10.55;64.41;97534.03;4884609;28;20271;-82
2023/05/02 04:57:29;;;;;;;13.25;9.40;;;;;;;10.44;65.15;97537.50;4893561;28;20248;-82
2023/05/02 04:59:54;;;;;;;12.18;9.23;;;;;;;10.48;64.94;97555.00;4882208;29;20230;-82
2023/05/02 05:02:19;;;;;;;10.63;6.95;;;;;;;10.60;63.56;97552.34;4902691;28;20192;-82
2023/05/02 05:04:45;;;;;;;8.20;6.70;;;;;;;10.59;64.37;97557.78;4904444;28;20218;-82
2023/05/02 05:07:10;;;;;;;8.77;6.25;;;;;;;10.69;64.19;97563.19;4917089;28;20198;-82
2023/05/02 05:09:35;;;;;;;7.28;5.97;;;;;;;10.77;63.91;97568.00;4868034;29;20673;-82
2023/05/02 05:12:01;;;;;;;9.55;7.20;;;;;;;10.94;62.88;97557.59;4903418;28;20258;-82
2023/05/02 05:14:26;;;;;;;8.48;6.90;;;;;;;11.21;62.94;97577.81;4906857;28;20231;-82
2023/05/02 05:16:52;;;;;;;7.50;6.15;;;;;;;11.12;62.67;97568.81;4910535;28;20161;-82
2023/05/02 05:19:17;;;;;;;9.50;7.28;;;;;;;11.37;63.56;97589.25;4909689;28;20208;-82
2023/05/02 05:21:42;;;;;;;12.80;8.88;;;;;;;11.35;63.86;97565.25;4908779;28;20277;-82
2023/05/02 05:24:08;;;;;;;16.13;11.93;;;;;;;11.43;64.11;97568.22;4910759;28;20194;-82
2023/05/02 05:26:33;;;;;;;23.55;15.98;;;;;;;11.45;65.01;97568.00;4883754;28;20186;-82
2023/05/02 05:28:59;;;;;;;30.83;19.60;;;;;;;11.60;65.26;97575.22;4904309;28;20191;-83
2023/05/02 05:31:24;;;;;;;29.98;19.73;;;;;;;11.90;65.90;97605.34;4893534;28;20325;-82
2023/05/02 05:33:50;;;;;;;20.83;14.32;;;;;;;11.87;65.83;97598.00;4904670;28;20281;-82
2023/05/02 05:36:16;;;;;;;17.13;12.15;;;;;;;11.89;65.48;97601.16;4871777;28;20468;-82
2023/05/02 05:38:42;;;;;;;16.55;11.65;;;;;;;11.87;65.62;97611.06;4920225;28;20672;-82
2023/05/02 05:41:07;;;;;;;23.15;14.68;;;;;;;11.97;65.31;97608.59;4892315;28;20198;-81
2023/05/02 05:43:33;;;;;;;18.05;13.70;;;;;;;11.97;65.76;97616.44;4889294;28;20199;-82
2023/05/02 05:45:58;;;;;;;24.60;16.20;;;;;;;12.06;65.89;97622.78;4895404;28;20601;-82
2023/05/02 05:48:24;;;;;;;28.55;19.95;;;;;;;12.28;65.23;97620.19;4889165;28;20222;-82
2023/05/02 05:50:51;;;;;;;27.13;18.85;;;;;;;12.46;64.69;97620.91;4918617;28;20183;-82
2023/05/02 05:53:17;;;;;;;26.58;18.52;;;;;;;12.54;64.74;97623.06;4898352;28;20198;-82
2023/05/02 05:55:42;;;;;;;27.90;18.88;;;;;;;12.73;64.74;97633.97;4886203;28;20187;-82
2023/05/02 05:58:07;;;;;;;29.75;20.10;;;;;;;12.90;64.27;97637.28;4884974;28;20249;-82
2023/05/02 06:00:34;;;;;;;36.38;22.98;;;;;;;12.97;64.30;97634.47;4902654;28;20243;-82
2023/05/02 06:02:59;;;;;;;37.75;25.83;;;;;;;13.12;63.89;97641.66;4914095;28;20306;-81
2023/05/02 06:05:25;;;;;;;40.42;25.85;;;;;;;13.18;64.14;97640.66;4884136;28;20341;-82
2023/05/02 06:07:50;;;;;;;35.53;23.52;;;;;;;13.16;64.35;97631.47;4893302;28;20206;-83
2023/05/02 06:10:16;;;;;;;35.08;24.52;;;;;;;13.29;63.87;97647.53;4880743;28;20207;-82
2023/05/02 06:12:41;;;;;;;38.75;25.00;;;;;;;13.37;63.79;97653.41;4860703;29;20172;-82
2023/05/02 06:15:07;;;;;;;37.50;23.70;;;;;;;13.39;63.84;97651.31;4894647;28;21291;-82
2023/05/02 06:17:32;;;;;;;34.47;22.63;;;;;;;13.52;63.32;97650.88;4891353;28;20179;-82
2023/05/02 06:19:57;;;;;;;40.33;24.30;;;;;;;13.59;62.96;97654.06;4870270;28;20248;-81
2023/05/02 06:22:23;;;;;;;38.40;25.10;;;;;;;13.79;62.86;97655.22;4867088;28;20251;-81
2023/05/02 06:24:48;;;;;;;39.17;25.83;;;;;;;13.98;62.41;97658.22;4909212;28;20623;-82
2023/05/02 06:27:13;;;;;;;43.95;26.50;;;;;;;14.16;62.29;97663.03;4881983;28;20287;-82
2023/05/02 06:29:39;;;;;;;40.33;24.33;;;;;;;14.40;61.55;97660.75;4896645;28;20199;-83
2023/05/02 06:32:05;;;;;;;37.60;24.27;;;;;;;14.76;60.79;97678.47;4895560;28;20290;-82
2023/05/02 06:34:32;;;;;;;40.45;26.05;;;;;;;14.91;60.19;97665.38;4883273;28;20213;-82
2023/05/02 06:36:57;;;;;;;39.80;25.83;;;;;;;15.06;59.07;97676.94;4869245;29;20255;-81
2023/05/02 06:39:23;;;;;;;37.30;25.00;;;;;;;15.27;58.97;97675.13;4892328;28;20309;-82
2023/05/02 06:41:48;;;;;;;37.85;24.63;;;;;;;15.28;57.43;97677.47;4866235;28;20246;-82
2023/05/02 06:44:14;;;;;;;35.17;23.17;;;;;;;15.46;57.84;97689.28;4882944;28;20235;-83
2023/05/02 06:46:39;;;;;;;36.30;24.50;;;;;;;15.40;57.82;97679.06;4875713;28;20171;-82
2023/05/02 06:49:05;;;;;;;33.85;22.35;;;;;;;15.36;57.47;97687.44;4871419;28;20280;-82
2023/05/02 06:51:31;;;;;;;35.28;24.05;;;;;;;15.52;56.00;97667.25;4872007;28;20690;-82
2023/05/02 06:53:56;;;;;;;35.13;23.08;;;;;;;15.52;56.51;97687.44;4889469;28;20332;-81
2023/05/02 06:56:24;;;;;;;39.70;23.77;;;;;;;15.26;56.59;97692.69;4892822;28;20576;-82
2023/05/02 06:58:49;;;;;;;37.05;23.98;;;;;;;15.09;56.73;97694.78;4894661;28;20305;-82
2023/05/02 07:01:15;;;;;;;39.58;23.50;;;;;;;15.10;57.46;97689.28;4883594;28;20220;-84
2023/05/02 07:03:40;;;;;;;36.15;22.65;;;;;;;15.34;56.61;97694.03;4865700;29;20250;-82
2023/05/02 07:06:06;;;;;;;35.58;21.73;;;;;;;15.13;56.73;97693.19;4892898;28;20431;-85
2023/05/02 07:08:31;;;;;;;31.85;20.65;;;;;;;15.40;55.60;97708.69;4884820;28;20265;-84
2023/05/02 07:10:56;;;;;;;32.95;22.33;;;;;;;15.58;54.55;97704.00;4880089;28;20165;-81
2023/05/02 07:13:22;;;;;;;30.85;21.20;;;;;;;15.40;55.21;97692.16;4877267;28;20204;-82
2023/05/02 07:15:47;;;;;;;34.25;22.98;;;;;;;15.60;55.45;97712.38;4861046;28;20376;-81
2023/05/02 07:18:13;;;;;;;31.80;21.13;;;;;;;15.64;55.68;97708.19;4857512;28;20275;-81
2023/05/02 07:20:40;;;;;;;32.58;21.73;;;;;;;15.70;55.22;97717.63;4892147;28;20212;-83
2023/05/02 07:23:05;;;;;;;35.08;22.38;;;;;;;15.83;54.17;97709.22;4892619;28;20275;-83
2023/05/02 07:25:31;;;;;;;33.53;21.88;;;;;;;15.58;54.53;97722.38;4862366;28;20636;-82
2023/05/02 07:27:56;;;;;;;31.55;21.42;;;;;;;15.86;53.45;97713.94;4892315;28;20237;-82
2023/05/02 07:30:22;;;;;;;30.17;21.15;;;;;;;15.77;53.86;97712.91;4883027;28;20590;-82
2023/05/02 07:32:47;;;;;;;31.38;20.50;;;;;;;16.04;53.01;97728.38;4875111;28;20203;-82
2023/05/02 07:35:13;;;;;;;31.10;19.73;;;;;;;15.82;53.58;97691.91;4873413;28;20227;-82
2023/05/02 07:37:38;;;;;;;30.75;20.70;;;;;;;16.11;52.60;97717.59;4867098;28;20660;-81
2023/05/02 07:40:04;;;;;;;29.38;19.75;;;;;;;16.71;51.80;97708.94;4895180;28;20203;-82
2023/05/02 07:42:30;;;;;;;27.33;19.15;;;;;;;16.91;51.16;97702.84;4888886;28;20184;-81
2023/05/02 07:44:56;;;;;;;27.52;19.33;;;;;;;17.13;49.39;97710.34;4872083;28;20137;-81
2023/05/02 07:47:21;;;;;;;26.95;19.13;;;;;;;17.18;49.38;97718.97;4893544;28;20316;-81
2023/05/02 07:49:50;;;;;;;29.27;20.02;;;;;;;17.07;50.27;97716.66;4904241;28;20293;-84
2023/05/02 07:52:15;;;;;;;24.63;17.55;;;;;;;17.02;49.90;97723.56;4872310;28;20172;-82
2023/05/02 07:54:41;;;;;;;26.95;17.48;;;;;;;16.87;50.38;97728.91;4877184;28;20198;-82
2023/05/02 07:57:07;;;;;;;26.65;18.85;;;;;;;16.86;50.44;97716.78;4887941;28;20338;-83
2023/05/02 07:59:33;;;;;;;26.65;17.80;;;;;;;16.57;50.56;97725.34;4909920;28;20293;-81
2023/05/02 08:01:58;;;;;;;25.83;17.05;;;;;;;16.52;51.28;97727.19;4870472;28;20233;-82
2023/05/02 08:04:24;;;;;;;24.95;18.40;;;;;;;16.66;51.31;97733.44;4877860;28;20200;-83
2023/05/02 08:06:50;;;;;;;26.60;17.75;;;;;;;16.60;51.60;97734.50;4877003;28;20301;-81
2023/05/02 08:09:15;;;;;;;25.88;18.63;;;;;;;16.67;51.85;97741.06;4873321;28;20254;-83
2023/05/02 08:11:41;;;;;;;25.85;17.80;;;;;;;16.76;51.48;97745.75;4885059;28;20676;-82
2023/05/02 08:14:06;;;;;;;27.05;18.42;;;;;;;16.28;52.51;97733.84;4858686;28;20581;-82
2023/05/02 08:16:32;;;;;;;24.73;17.27;;;;;;;16.24;52.42;97745.91;4890040;28;20289;-82
2023/05/02 08:18:57;;;;;;;26.58;17.23;;;;;;;16.38;52.05;97745.38;4871656;28;20300;-82
2023/05/02 08:21:23;;;;;;;24.20;15.75;;;;;;;16.54;51.65;97746.91;4888155;28;20221;-81
2023/05/02 08:23:48;;;;;;;26.98;16.33;;;;;;;16.72;51.12;97744.72;4892907;28;20255;-81
2023/05/02 08:26:14;;;;;;;24.17;17.10;;;;;;;16.71;50.81;97749.19;4892488;28;20212;-81
2023/05/02 08:28:40;;;;;;;27.13;18.23;;;;;;;16.72;50.74;97742.09;4881368;28;20171;-81
2023/05/02 08:31:05;;;;;;;28.85;19.02;;;;;;;16.88;51.52;97759.41;4898166;28;20193;-82
2023/05/02 08:33:31;;;;;;;24.13;16.77;;;;;;;16.97;50.91;97757.78;4894241;28;20624;-81
2023/05/02 08:35:56;;;;;;;25.70;17.13;;;;;;;16.95;50.90;97762.53;4893181;28;20267;-82
2023/05/02 08:38:21;;;;;;;26.83;16.70;;;;;;;16.82;51.87;97769.13;4874921;28;20312;-82
2023/05/02 08:40:47;;;;;;;26.13;18.25;;;;;;;17.11;50.33;97767.72;4878979;28;20214;-81
2023/05/02 08:43:12;;;;;;;23.75;16.77;;;;;;;17.16;50.14;97755.31;4889498;28;20199;-82
2023/05/02 08:45:42;;;;;;;24.20;16.60;;;;;;;17.31;50.05;97772.06;4888943;28;20251;-81
2023/05/02 08:48:12;;;;;;;22.35;15.68;;;;;;;17.19;50.51;97775.81;4898948;28;20704;-82
2023/05/02 08:50:40;;;;;;;22.20;15.55;;;;;;;16.85;50.80;97765.22;4891774;28;20257;-82
2023/05/02 08:53:07;;;;;;;24.20;16.60;;;;;;;16.99;50.91;97789.84;4883295;28;20184;-83
2023/05/02 08:55:34;;;;;;;23.88;16.75;;;;;;;16.91;51.11;97785.16;4885360;28;20709;-82
2023/05/02 08:58:00;;;;;;;24.48;15.68;;;;;;;16.93;51.58;97785.69;4860258;28;20175;-81
2023/05/02 09:00:26;;;;;;;23.85;16.23;;;;;;;16.70;51.56;97788.91;4875852;28;20624;-82
2023/05/02 09:02:58;;;;;;;24.52;15.93;;;;;;;16.78;52.35;97789.13;4908871;28;20683;-82
2023/05/02 09:05:24;;;;;;;22.05;15.30;;;;;;;16.77;51.24;97794.66;4880137;28;20656;-82
2023/05/02 09:07:50;;;;;;;18.15;12.88;;;;;;;16.91;50.85;97797.53;4884402;28;20107;-81
2023/05/02 09:10:15;;;;;;;18.88;13.02;;;;;;;16.96;50.39;97785.13;4869364;28;20225;-82
2023/05/02 09:12:41;;;;;;;17.65;12.57;;;;;;;17.12;49.04;97779.78;4882863;28;20344;-82
2023/05/02 09:15:16;;;;;;;20.25;12.93;;;;;;;17.06;50.38;97800.09;4891975;28;20210;-84
2023/05/02 09:17:43;;;;;;;18.67;13.70;;;;;;;16.99;50.08;97795.13;4891335;28;20643;-81
2023/05/02 09:20:13;;;;;;;20.88;14.00;;;;;;;17.12;50.96;97788.50;4881897;28;20257;-82
2023/05/02 09:22:38;;;;;;;21.88;13.65;;;;;;;16.80;50.82;97796.75;4877639;28;20195;-82
2023/05/02 09:25:06;;;;;;;21.35;14.27;;;;;;;16.58;50.82;97805.75;4871729;28;20218;-83
2023/05/02 09:27:51;;;;;;;21.00;13.70;;;;;;;16.53;51.37;97807.63;4873172;28;20652;-84
2023/05/02 09:30:23;;;;;;;19.25;13.68;;;;;;;16.76;51.24;97806.22;4866193;28;20210;-81
2023/05/02 09:32:50;;;;;;;20.15;13.77;;;;;;;16.31;51.96;97806.09;4902972;28;20218;-81
2023/05/02 09:35:25;;;;;;;21.40;13.43;;;;;;;16.55;52.25;97795.78;4883943;28;20749;-81
2023/05/02 09:37:57;;;;;;;19.73;13.30;;;;;;;17.03;50.62;97800.63;4892899;28;20765;-81
2023/05/02 09:40:23;;;;;;;19.98;13.38;;;;;;;17.26;50.11;97799.19;4876067;28;20627;-82
2023/05/02 09:42:49;;;;;;;24.80;14.98;;;;;;;17.46;50.01;97803.56;4907840;28;20199;-81
2023/05/02 09:45:24;;;;;;;20.38;13.63;;;;;;;17.56;49.93;97810.59;4889627;28;20206;-84
2023/05/02 09:47:51;;;;;;;18.20;13.38;;;;;;;17.65;48.85;97816.88;4863757;28;20202;-80
2023/05/02 09:50:37;;;;;;;17.85;13.02;;;;;;;17.64;49.00;97819.78;4869036;28;20191;-83
2023/05/02 09:53:07;;;;;;;19.65;13.77;;;;;;;17.43;48.67;97817.25;4894490;28;20175;-82
2023/05/02 09:55:33;;;;;;;19.02;13.55;;;;;;;17.52;49.14;97828.00;4872181;29;20217;-84
2023/05/02 09:57:59;;;;;;;19.55;13.18;;;;;;;17.83;48.52;97827.78;4886909;28;20570;-83
2023/05/02 10:00:57;;;;;;;19.23;13.23;;;;;;;17.79;48.53;97827.56;4909220;28;20664;-81
2023/05/02 10:03:25;;;;;;;20.23;13.15;;;;;;;17.53;48.85;97837.47;4870874;28;20196;-81
2023/05/02 10:05:53;;;;;;;20.77;13.55;;;;;;;17.58;49.39;97835.59;4899112;28;20296;-82
2023/05/02 10:08:19;;;;;;;21.58;13.98;;;;;;;17.83;48.43;97838.34;4873316;28;20653;-81
2023/05/02 10:10:49;;;;;;;19.00;12.93;;;;;;;17.96;47.26;97843.78;4884433;28;20273;-81
2023/05/02 10:13:16;;;;;;;19.20;13.65;;;;;;;16.85;49.88;97841.47;4897031;28;20261;-81
2023/05/02 10:15:42;;;;;;;18.92;12.75;;;;;;;17.46;49.22;97840.41;4890970;28;20253;-81
2023/05/02 10:18:13;;;;;;;19.70;12.57;;;;;;;17.81;47.62;97857.03;4888501;28;20705;-83
2023/05/02 10:20:43;;;;;;;16.92;11.32;;;;;;;17.84;46.88;97845.97;4895163;28;20271;-83
2023/05/02 10:23:09;;;;;;;16.67;10.40;;;;;;;17.90;46.86;97846.72;4882305;28;20192;-83
2023/05/02 10:25:35;;;;;;;17.38;11.70;;;;;;;18.06;46.05;97850.03;4875622;28;20198;-83
2023/05/02 10:28:01;;;;;;;17.35;11.75;;;;;;;18.15;46.69;97843.91;4879732;28;20259;-81
2023/05/02 10:30:29;;;;;;;16.73;11.38;;;;;;;18.17;46.27;97834.94;4884487;28;20293;-82
2023/05/02 10:32:58;;;;;;;16.90;10.52;;;;;;;18.31;45.52;97833.22;4871199;28;20278;-81
2023/05/02 10:35:24;;;;;;;16.08;10.40;;;;;;;18.69;44.67;97843.91;4895162;28;20198;-82
2023/05/02 10:37:50;;;;;;;14.65;9.80;;;;;;;18.47;45.96;97839.91;4873945;28;20279;-82
2023/05/02 10:40:17;;;;;;;16.45;10.45;;;;;;;18.25;45.35;97839.59;4874617;28;20269;-83
2023/05/02 10:42:44;;;;;;;15.13;9.70;;;;;;;18.67;43.56;97843.41;4900887;28;20377;-82
2023/05/02 10:45:34;;;;;;;13.90;9.27;;;;;;;19.57;44.04;97846.25;4868763;28;20594;-82
2023/05/02 10:48:21;;;;;;;12.90;8.45;;;;;;;19.63;42.00;97837.97;4873884;28;20280;-80
2023/05/02 10:50:47;;;;;;;10.75;8.05;;;;;;;19.51;41.10;97842.13;4886624;28;20270;-82
2023/05/02 10:53:43;;;;;;;12.20;7.90;;;;;;;19.49;41.15;97842.41;4870112;29;20663;-82
2023/05/02 10:56:20;;;;;;;11.93;8.48;;;;;;;19.12;41.57;97838.69;4886221;28;20199;-82
2023/05/02 10:58:51;;;;;;;13.40;8.18;;;;;;;18.75;43.04;97839.34;4859498;28;20210;-83
2023/05/02 11:01:28;;;;;;;11.80;8.10;;;;;;;19.03;41.60;97835.88;4857674;28;20255;-81
2023/05/02 11:04:00;;;;;;;11.48;7.63;;;;;;;18.63;43.07;97837.13;4883317;28;20219;-82
2023/05/02 11:06:28;;;;;;;10.68;7.22;;;;;;;18.55;42.89;97829.81;4889506;28;20585;-82
2023/05/02 11:09:13;;;;;;;10.10;7.10;;;;;;;18.68;42.72;97840.50;4899913;28;20604;-82
2023/05/02 11:11:45;;;;;;;10.82;7.20;;;;;;;18.52;44.61;97837.22;4887360;28;20354;-81
2023/05/02 11:14:33;;;;;;;9.27;7.00;;;;;;;18.81;41.44;97835.59;4897327;28;20298;-83
2023/05/02 11:17:08;;;;;;;9.60;6.20;;;;;;;18.74;42.38;97835.94;4895965;28;20304;-80
2023/05/02 11:19:36;;;;;;;9.85;7.15;;;;;;;18.57;43.11;97839.00;4906705;28;20660;-81
2023/05/02 11:22:20;;;;;;;10.23;7.20;;;;;;;18.87;43.26;97835.28;4882146;28;20203;-81
2023/05/02 11:24:47;;;;;;;11.70;6.97;;;;;;;18.97;43.99;97829.13;4890734;28;20123;-83
2023/05/02 11:27:27;;;;;;;11.80;6.75;;;;;;;19.42;44.11;97837.50;4887349;28;20271;-81